Flight Track Log - Related Links

Times and Time Zones

All times are in EDT time to prevent confusion due to time zone crossing. See the AAL2007 flight status page for this flight to view local times or setup timezone preferences in your user account.

Time Position Orientation Groundspeed Altitude Reporting Facility
EDT Latitude Longitude Course Direction KTS MPH feet Rate Location/Type
Mon 06:17:14 PM 41.9333 -87.9167 207° Southwest 172 198 2,500  Level Chicago TRACON
Mon 06:18:08 PM 41.8833 -87.9000 166° South 202 232 3,800 2,098 Climbing Chicago TRACON
Mon 06:19:00 PM 41.7119 -88.1767 201° Southwest  Level Estimated
Mon 06:19:17 PM 41.8086 -87.9311 197° South 246 283 6,800  Level Chicago Center
Mon 06:20:00 PM 41.6219 -88.2662 197° South  Level Estimated
Mon 06:20:19 PM 41.7433 -87.9758 207° Southwest 266 306 9,400  Level Chicago Center
Mon 06:21:00 PM 41.5200 -88.2033 155° Southeast  Level FlightAware Approximate
Mon 06:21:21 PM 41.6742 -88.0225 207° Southwest 283 326 11,600  Level Chicago Center
Mon 06:22:00 PM 41.4304 -88.2934 207° Southwest  Level Estimated
Mon 06:22:23 PM 41.5758 -88.0967 209° Southwest 356 410 13,300  Level Chicago Center
Mon 06:23:25 PM 41.4783 -88.1467 201° Southwest 381 438 15,300 2,129 Climbing Chicago Center
Mon 06:24:27 PM 41.3767 -88.1942 199° South 401 461 17,700 2,177 Climbing Chicago Center
Mon 06:25:29 PM 41.2697 -88.2411 198° South 410 472 19,800 2,032 Climbing Chicago Center
Mon 06:26:31 PM 41.1375 -88.3006 199° South 418 481 21,900 1,728 Climbing Chicago Center
Mon 06:27:34 PM 41.0256 -88.3525 199° South 427 491 23,400 1,488 Climbing Chicago Center
Mon 06:28:36 PM 40.9097 -88.4031 198° South 438 504 25,000 1,452 Climbing Chicago Center
Mon 06:29:38 PM 40.7922 -88.4572 199° South 447 514 26,400 1,355 Climbing Chicago Center
Mon 06:30:40 PM 40.6808 -88.5325 207° Southwest 454 522 27,800 1,452 Climbing Chicago Center
Mon 06:31:42 PM 40.5703 -88.6586 221° Southwest 444 511 29,400 1,403 Climbing Chicago Center
Mon 06:32:44 PM 40.4764 -88.7617 220° Southwest 442 509 30,700 1,161 Climbing Chicago Center
Mon 06:33:46 PM 40.3917 -88.8536 220° Southwest 434 499 31,800 629 Climbing Chicago Center
Mon 06:34:48 PM 40.2997 -88.9542 220° Southwest 431 496 32,000 97 Climbing Chicago Center
Mon 06:35:50 PM 40.1878 -89.0761 220° Southwest 434 499 32,000  Level Chicago Center
Mon 06:36:48 PM 40.1117 -89.1575 219° Southwest 433 498 32,000  Level Kansas City Center
Mon 06:37:50 PM 40.0006 -89.2775 220° Southwest 433 498 32,000  Level Kansas City Center
Mon 06:38:52 PM 39.9078 -89.3781 220° Southwest 432 497 32,000  Level Kansas City Center
Mon 06:39:54 PM 39.8158 -89.4761 219° Southwest 430 495 32,000  Level Kansas City Center
Mon 06:40:56 PM 39.7236 -89.5758 220° Southwest 428 493 32,000  Level Kansas City Center
Mon 06:41:58 PM 39.6331 -89.6711 219° Southwest 428 493 32,000  Level Kansas City Center
Mon 06:43:00 PM 39.5408 -89.7703 220° Southwest 430 495 32,000  Level Kansas City Center
Mon 06:44:02 PM 39.4294 -89.8894 220° Southwest 433 498 32,000  Level Kansas City Center
Mon 06:45:04 PM 39.3364 -89.9878 219° Southwest 433 498 32,000  Level Kansas City Center
Mon 06:46:06 PM 39.2442 -90.0847 219° Southwest 431 496 32,000  Level Kansas City Center
Mon 06:47:08 PM 39.1500 -90.1822 219° Southwest 433 498 32,000  Level Kansas City Center
Mon 06:48:10 PM 39.0572 -90.2794 219° Southwest 432 497 32,000  Level Kansas City Center
Mon 06:49:12 PM 38.9656 -90.3756 219° Southwest 431 496 32,000  Level Kansas City Center
Mon 06:50:14 PM 38.8506 -90.4956 219° Southwest 430 495 32,000  Level Kansas City Center
Mon 06:51:16 PM 38.7592 -90.5972 221° Southwest 432 497 32,000  Level Kansas City Center
Mon 06:52:18 PM 38.6789 -90.6942 223° Southwest 435 501 32,000  Level Kansas City Center
Mon 06:53:20 PM 38.5900 -90.7947 221° Southwest 432 497 32,000  Level Kansas City Center
Mon 06:54:23 PM 38.4831 -90.9167 222° Southwest 432 497 32,000  Level Kansas City Center
Mon 06:55:24 PM 38.3939 -91.0181 222° Southwest 435 501 32,000  Level Kansas City Center
Mon 06:56:26 PM 38.3050 -91.1183 222° Southwest 429 494 32,000  Level Kansas City Center
Mon 06:57:28 PM 38.2158 -91.2211 222° Southwest 432 497 32,000  Level Kansas City Center
Mon 06:58:30 PM 38.1131 -91.3358 221° Southwest 430 495 32,000  Level Kansas City Center
Mon 06:59:32 PM 38.0222 -91.4389 222° Southwest 433 498 32,000  Level Kansas City Center
Mon 07:00:34 PM 37.9308 -91.5408 221° Southwest 433 498 32,000  Level Kansas City Center
Mon 07:01:36 PM 37.8408 -91.6422 222° Southwest 431 496 32,000  Level Kansas City Center
Mon 07:02:38 PM 37.7494 -91.7447 222° Southwest 433 498 32,000  Level Kansas City Center
Mon 07:03:40 PM 37.6589 -91.8467 222° Southwest 433 498 32,000  Level Kansas City Center
Mon 07:04:42 PM 37.5678 -91.9472 221° Southwest 431 496 32,000  Level Kansas City Center
Mon 07:05:44 PM 37.4586 -92.0692 222° Southwest 431 496 32,000  Level Kansas City Center
Mon 07:06:46 PM 37.3672 -92.1708 221° Southwest 434 499 32,000  Level Kansas City Center
Mon 07:07:48 PM 37.2764 -92.2714 221° Southwest 433 498 32,000  Level Kansas City Center
Mon 07:08:50 PM 37.1864 -92.3697 221° Southwest 429 494 32,000  Level Kansas City Center
Mon 07:09:53 PM 37.0969 -92.4686 221° Southwest 427 491 32,000  Level Kansas City Center
Mon 07:10:55 PM 37.0050 -92.5667 220° Southwest 429 494 32,000  Level Kansas City Center
Mon 07:11:57 PM 36.9150 -92.6658 221° Southwest 429 494 32,000  Level Kansas City Center
Mon 07:12:58 PM 36.8083 -92.7825 221° Southwest 432 497 32,000  Level Memphis Center
Mon 07:13:58 PM 36.7275 -92.8681 220° Southwest 432 497 32,000  Level Memphis Center
Mon 07:14:58 PM 36.6358 -92.9686 221° Southwest 437 503 32,000  Level Memphis Center
Mon 07:15:58 PM 36.5419 -93.0664 220° Southwest 437 503 32,000  Level Memphis Center
Mon 07:16:58 PM 36.4503 -93.1614 220° Southwest 437 503 32,000  Level Memphis Center
Mon 07:17:58 PM 36.3564 -93.2611 221° Southwest 442 509 32,000  Level Memphis Center
Mon 07:18:58 PM 36.2644 -93.3583 220° Southwest 437 503 32,000  Level Memphis Center
Mon 07:19:58 PM 36.1722 -93.4578 221° Southwest 437 503 32,000  Level Memphis Center
Mon 07:20:58 PM 36.0781 -93.5544 220° Southwest 437 503 32,000  Level Memphis Center
Mon 07:21:58 PM 35.9839 -93.6533 220° Southwest 442 509 32,000  Level Memphis Center
Mon 07:22:58 PM 35.8914 -93.7519 221° Southwest 442 509 32,000  Level Memphis Center
Mon 07:23:58 PM 35.7992 -93.8481 220° Southwest 442 509 32,000  Level Memphis Center
Mon 07:24:58 PM 35.6917 -93.9561 219° Southwest 442 509 32,000  Level Memphis Center
Mon 07:25:58 PM 35.5972 -94.0567 221° Southwest 442 509 32,000  Level Memphis Center
Mon 07:26:57 PM 35.5025 -94.1519 219° Southwest 442 509 32,000  Level Memphis Center
Mon 07:27:00 PM 35.5065 -94.1459 219° Southwest  Level FlightAware Approximate
Mon 07:27:58 PM 35.4078 -94.2494 220° Southwest 448 516 32,000  Level Memphis Center
Mon 07:28:58 PM 35.3111 -94.3314 215° Southwest 442 509 32,000  Level Memphis Center
Mon 07:29:58 PM 35.2067 -94.4078 211° Southwest 442 509 32,000  Level Memphis Center
Mon 07:31:30 PM 35.0519 -94.5325 213° Southwest 416 479 32,000  Level Fort Worth Center
Mon 07:32:30 PM 34.9494 -94.6044 210° Southwest 421 484 32,000  Level Fort Worth Center
Mon 07:33:30 PM 34.8572 -94.6808 214° Southwest 433 498 32,000  Level Fort Worth Center
Mon 07:34:30 PM 34.7544 -94.7600 212° Southwest 433 498 32,000  Level Fort Worth Center
Mon 07:35:30 PM 34.6539 -94.8361 212° Southwest 440 506 32,000  Level Fort Worth Center
Mon 07:36:30 PM 34.5511 -94.9125 211° Southwest 440 506 32,000  Level Fort Worth Center
Mon 07:37:30 PM 34.4483 -94.9908 212° Southwest 440 506 32,000  Level Fort Worth Center
Mon 07:38:30 PM 34.3433 -95.0642 210° Southwest 440 506 32,000  Level Fort Worth Center
Mon 07:39:30 PM 34.2406 -95.1425 212° Southwest 440 506 32,000  Level Fort Worth Center
Mon 07:40:30 PM 34.1417 -95.2178 212° Southwest 440 506 32,000  Level Fort Worth Center
Mon 07:41:30 PM 34.0386 -95.2931 211° Southwest 440 506 32,000  Level Fort Worth Center
Mon 07:42:30 PM 33.9333 -95.3683 211° Southwest 440 506 32,000  Level Fort Worth Center
Mon 07:43:30 PM 33.8303 -95.4431 211° Southwest 440 506 32,000  Level Fort Worth Center
Mon 07:44:30 PM 33.7250 -95.5206 211° Southwest 440 506 32,000  Level Fort Worth Center
Mon 07:45:30 PM 33.6239 -95.5950 212° Southwest 440 506 32,000  Level Fort Worth Center
Mon 07:46:30 PM 33.5122 -95.6769 211° Southwest 435 501 32,000  Level Fort Worth Center
Mon 07:47:30 PM 33.4172 -95.7411 209° Southwest 435 501 32,000  Level Fort Worth Center
Mon 07:48:30 PM 33.3056 -95.8178 210° Southwest 435 501 32,000  Level Fort Worth Center
Mon 07:49:30 PM 33.2042 -95.8842 209° Southwest 435 501 32,000  Level Fort Worth Center
Mon 07:50:30 PM 33.1006 -95.9578 211° Southwest 435 501 32,000  Level Fort Worth Center
Mon 07:51:30 PM 32.9989 -96.0239 209° Southwest 430 495 32,000  Level Fort Worth Center
Mon 07:52:30 PM 32.8953 -96.0922 209° Southwest 430 495 32,000  Level Fort Worth Center
Mon 07:53:30 PM 32.7939 -96.1631 210° Southwest 430 495 32,000  Level Fort Worth Center
Mon 07:54:30 PM 32.7006 -96.2283 210° Southwest 430 495 32,000  Level Fort Worth Center
Mon 07:55:30 PM 32.5883 -96.3039 210° Southwest 430 495 32,000  Level Fort Worth Center
Mon 07:56:30 PM 32.4950 -96.3667 210° Southwest 430 495 32,000  Level Fort Worth Center
Mon 07:57:30 PM 32.3828 -96.4392 209° Southwest 430 495 32,000 -600 Level Fort Worth Center
Mon 07:58:30 PM 32.2914 -96.5017 210° Southwest 430 495 30,800 -1,700 Descending Fort Worth Center
Mon 07:59:30 PM 32.1833 -96.5739 210° Southwest 417 480 28,600 -2,200 Descending Fort Worth Center
Mon 08:00:30 PM 32.0878 -96.6408 211° Southwest 411 473 26,400 -2,050 Descending Fort Worth Center
Mon 08:01:30 PM 31.9922 -96.7006 208° Southwest 396 456 24,500 -2,000 Descending Fort Worth Center
Mon 08:02:30 PM 31.9006 -96.7625 210° Southwest 391 450 22,400 -1,250 Descending Fort Worth Center
Mon 08:03:30 PM 31.8069 -96.8194 207° Southwest 386 444 22,000 -200 Descending Fort Worth Center
Mon 08:04:30 PM 31.7133 -96.8833 210° Southwest 386 444 22,000  Level Fort Worth Center
Mon 08:05:30 PM 31.6153 -96.9475 209° Southwest 392 451 22,000  Level Fort Worth Center
Mon 08:06:30 PM 31.5300 -97.0014 208° Southwest 392 451 22,000  Level Fort Worth Center
Mon 08:07:23 PM 31.4364 -97.0617 209° Southwest 396 456 22,000  Level Houston Center
Mon 08:08:25 PM 31.3389 -97.1261 209° Southwest 397 457 22,000 -871 Level Houston Center
Mon 08:09:27 PM 31.2425 -97.1878 209° Southwest 393 452 20,200 -1,951 Descending Houston Center
Mon 08:10:28 PM 31.1433 -97.2358 203° Southwest 383 441 18,000 -1,902 Descending Houston Center
Mon 08:11:30 PM 31.0425 -97.2628 193° South 371 427 16,300 -1,742 Descending Houston Center
Mon 08:12:32 PM 30.9422 -97.2703 184° South 358 412 14,400 -1,440 Descending Houston Center
Mon 08:13:35 PM 30.8447 -97.2986 194° South 320 368 13,300 -726 Descending Houston Center
Mon 08:14:36 PM 30.7658 -97.3361 202° Southwest 309 356 12,900 -927 Descending Houston Center
Mon 08:15:38 PM 30.6883 -97.3694 200° South 298 343 11,400 -1,790 Descending Houston Center
Mon 08:16:40 PM 30.6167 -97.4183 210° Southwest 296 341 9,200 -2,081 Descending Houston Center
Mon 08:17:42 PM 30.5522 -97.4800 219° Southwest 297 342 7,100 -1,742 Descending Houston Center
Mon 08:18:44 PM 30.4844 -97.5311 213° Southwest 291 335 5,600 -1,355 Descending Houston Center
Mon 08:19:46 PM 30.4106 -97.5856 212° Southwest 270 311 4,300 -1,161 Descending Houston Center
Mon 08:20:48 PM 30.3500 -97.6294 212° Southwest 257 296 3,200 -1,065 Descending Houston Center

Login

Don't have an account? Register now (free) for customized features, flight alerts, and more!